sensor_id;sensor_type;location;lat;lon;timestamp;pressure;altitude;pressure_sealevel;temperature;humidity
25855;BME280;13680;49.936;11.344;2023-03-03T00:00:53;96903.81;;;3.64;56.13
25855;BME280;13680;49.936;11.344;2023-03-03T00:03:21;96906.53;;;3.69;55.87
25855;BME280;13680;49.936;11.344;2023-03-03T00:05:48;96912.41;;;3.71;55.42
25855;BME280;13680;49.936;11.344;2023-03-03T00:08:14;96912.34;;;3.66;55.85
25855;BME280;13680;49.936;11.344;2023-03-03T00:10:39;96913.31;;;3.55;55.88
25855;BME280;13680;49.936;11.344;2023-03-03T00:13:23;96914.03;;;3.50;56.05
25855;BME280;13680;49.936;11.344;2023-03-03T00:15:49;96910.97;;;3.36;56.49
25855;BME280;13680;49.936;11.344;2023-03-03T00:18:33;96913.91;;;3.13;57.62
25855;BME280;13680;49.936;11.344;2023-03-03T00:21:01;96915.34;;;3.03;57.61
25855;BME280;13680;49.936;11.344;2023-03-03T00:23:37;96917.69;;;3.00;57.76
25855;BME280;13680;49.936;11.344;2023-03-03T00:26:17;96920.97;;;2.85;58.04
25855;BME280;13680;49.936;11.344;2023-03-03T00:28:50;96929.41;;;2.82;58.56
25855;BME280;13680;49.936;11.344;2023-03-03T00:31:21;96921.88;;;2.73;59.08
25855;BME280;13680;49.936;11.344;2023-03-03T00:33:50;96929.28;;;2.71;59.39
25855;BME280;13680;49.936;11.344;2023-03-03T00:38:53;96932.84;;;2.60;59.58
25855;BME280;13680;49.936;11.344;2023-03-03T00:41:26;96936.47;;;2.54;59.88
25855;BME280;13680;49.936;11.344;2023-03-03T00:43:52;96934.88;;;2.53;59.86
25855;BME280;13680;49.936;11.344;2023-03-03T00:46:24;96932.69;;;2.50;60.39
25855;BME280;13680;49.936;11.344;2023-03-03T00:48:50;96927.88;;;2.47;59.77
25855;BME280;13680;49.936;11.344;2023-03-03T00:53:47;96937.28;;;2.37;60.86
25855;BME280;13680;49.936;11.344;2023-03-03T00:56:13;96927.56;;;2.43;60.52
25855;BME280;13680;49.936;11.344;2023-03-03T00:58:38;96933.81;;;2.37;61.17
25855;BME280;13680;49.936;11.344;2023-03-03T01:01:04;96924.91;;;2.26;61.89
25855;BME280;13680;49.936;11.344;2023-03-03T01:03:29;96924.34;;;2.24;61.66
25855;BME280;13680;49.936;11.344;2023-03-03T01:05:54;96929.47;;;2.13;62.62
25855;BME280;13680;49.936;11.344;2023-03-03T01:08:21;96929.97;;;2.27;63.03
25855;BME280;13680;49.936;11.344;2023-03-03T01:10:55;96929.09;;;2.39;62.61
25855;BME280;13680;49.936;11.344;2023-03-03T01:13:25;96923.28;;;2.42;62.60
25855;BME280;13680;49.936;11.344;2023-03-03T01:15:51;96921.13;;;2.39;62.97
25855;BME280;13680;49.936;11.344;2023-03-03T01:18:16;96921.53;;;2.48;62.91
25855;BME280;13680;49.936;11.344;2023-03-03T01:20:42;96913.84;;;2.51;62.62
25855;BME280;13680;49.936;11.344;2023-03-03T01:23:08;96908.69;;;2.61;62.61
25855;BME280;13680;49.936;11.344;2023-03-03T01:25:33;96912.09;;;2.57;62.84
25855;BME280;13680;49.936;11.344;2023-03-03T01:27:59;96912.09;;;2.57;62.80
25855;BME280;13680;49.936;11.344;2023-03-03T01:30:24;96918.38;;;2.51;62.63
25855;BME280;13680;49.936;11.344;2023-03-03T01:32:50;96911.63;;;2.43;62.41
25855;BME280;13680;49.936;11.344;2023-03-03T01:35:16;96912.91;;;2.40;63.32
25855;BME280;13680;49.936;11.344;2023-03-03T01:37:41;96907.19;;;2.49;63.22
25855;BME280;13680;49.936;11.344;2023-03-03T01:40:12;96896.50;;;2.60;62.71
25855;BME280;13680;49.936;11.344;2023-03-03T01:42:38;96895.13;;;2.58;62.59
25855;BME280;13680;49.936;11.344;2023-03-03T01:45:21;96907.91;;;2.27;63.78
25855;BME280;13680;49.936;11.344;2023-03-03T01:50:27;96893.22;;;2.36;63.47
25855;BME280;13680;49.936;11.344;2023-03-03T01:52:57;96896.50;;;2.43;63.29
25855;BME280;13680;49.936;11.344;2023-03-03T01:55:29;96896.34;;;2.33;63.57
25855;BME280;13680;49.936;11.344;2023-03-03T01:58:04;96905.13;;;2.34;63.45
25855;BME280;13680;49.936;11.344;2023-03-03T02:00:33;96913.94;;;2.05;64.10
25855;BME280;13680;49.936;11.344;2023-03-03T02:03:00;96912.75;;;2.13;64.72
25855;BME280;13680;49.936;11.344;2023-03-03T02:05:26;96915.25;;;2.20;64.27
25855;BME280;13680;49.936;11.344;2023-03-03T02:07:52;96906.16;;;2.16;64.64
25855;BME280;13680;49.936;11.344;2023-03-03T02:10:19;96906.72;;;2.18;64.49
25855;BME280;13680;49.936;11.344;2023-03-03T02:12:51;96913.06;;;2.17;64.38
25855;BME280;13680;49.936;11.344;2023-03-03T02:17:46;96903.41;;;1.76;66.39
25855;BME280;13680;49.936;11.344;2023-03-03T02:22:52;96901.97;;;2.03;65.67
25855;BME280;13680;49.936;11.344;2023-03-03T02:25:32;96908.50;;;2.12;64.53
25855;BME280;13680;49.936;11.344;2023-03-03T02:27:58;96903.13;;;2.07;63.86
25855;BME280;13680;49.936;11.344;2023-03-03T02:30:24;96903.59;;;2.04;63.80
25855;BME280;13680;49.936;11.344;2023-03-03T02:32:50;96901.97;;;2.03;63.80
25855;BME280;13680;49.936;11.344;2023-03-03T02:35:26;96895.78;;;1.97;63.90
25855;BME280;13680;49.936;11.344;2023-03-03T02:37:52;96906.53;;;1.73;64.71
25855;BME280;13680;49.936;11.344;2023-03-03T02:40:20;96912.66;;;1.74;64.95
25855;BME280;13680;49.936;11.344;2023-03-03T02:42:49;96919.22;;;1.71;64.79
25855;BME280;13680;49.936;11.344;2023-03-03T02:45:16;96917.03;;;1.68;65.48
25855;BME280;13680;49.936;11.344;2023-03-03T02:47:48;96917.19;;;1.61;65.59
25855;BME280;13680;49.936;11.344;2023-03-03T02:50:13;96924.91;;;1.63;65.59
25855;BME280;13680;49.936;11.344;2023-03-03T02:52:39;96917.97;;;1.62;65.87
25855;BME280;13680;49.936;11.344;2023-03-03T02:55:05;96912.03;;;1.55;66.07
25855;BME280;13680;49.936;11.344;2023-03-03T02:57:31;96911.22;;;1.54;65.98
25855;BME280;13680;49.936;11.344;2023-03-03T02:59:56;96916.56;;;1.42;66.52
25855;BME280;13680;49.936;11.344;2023-03-03T03:02:21;96913.13;;;1.42;66.36
25855;BME280;13680;49.936;11.344;2023-03-03T03:04:47;96916.81;;;1.41;66.78
25855;BME280;13680;49.936;11.344;2023-03-03T03:07:12;96922.91;;;1.41;67.24
25855;BME280;13680;49.936;11.344;2023-03-03T03:09:37;96915.53;;;1.43;67.38
25855;BME280;13680;49.936;11.344;2023-03-03T03:12:03;96916.97;;;1.34;68.39
25855;BME280;13680;49.936;11.344;2023-03-03T03:14:29;96910.25;;;1.43;68.12
25855;BME280;13680;49.936;11.344;2023-03-03T03:16:54;96909.31;;;1.50;68.62
25855;BME280;13680;49.936;11.344;2023-03-03T03:19:20;96906.25;;;1.58;68.69
25855;BME280;13680;49.936;11.344;2023-03-03T03:21:45;96898.72;;;1.67;67.95
25855;BME280;13680;49.936;11.344;2023-03-03T03:24:11;96897.94;;;1.66;67.91
25855;BME280;13680;49.936;11.344;2023-03-03T03:26:36;96894.72;;;1.64;67.07
25855;BME280;13680;49.936;11.344;2023-03-03T03:29:01;96898.44;;;1.80;67.22
25855;BME280;13680;49.936;11.344;2023-03-03T03:31:27;96908.53;;;1.66;67.61
25855;BME280;13680;49.936;11.344;2023-03-03T03:33:52;96913.25;;;1.64;67.45
25855;BME280;13680;49.936;11.344;2023-03-03T03:36:18;96911.88;;;1.61;67.12
25855;BME280;13680;49.936;11.344;2023-03-03T03:38:43;96912.59;;;1.57;66.67
25855;BME280;13680;49.936;11.344;2023-03-03T03:41:10;96915.88;;;1.47;66.40
25855;BME280;13680;49.936;11.344;2023-03-03T03:43:36;96915.59;;;1.32;66.88
25855;BME280;13680;49.936;11.344;2023-03-03T03:46:01;96916.09;;;1.17;67.27
25855;BME280;13680;49.936;11.344;2023-03-03T03:48:27;96913.53;;;1.22;67.58
25855;BME280;13680;49.936;11.344;2023-03-03T03:50:52;96916.34;;;1.15;67.09
25855;BME280;13680;49.936;11.344;2023-03-03T03:53:18;96926.81;;;1.10;68.19
25855;BME280;13680;49.936;11.344;2023-03-03T03:55:44;96923.59;;;1.08;68.11
25855;BME280;13680;49.936;11.344;2023-03-03T03:58:13;96929.91;;;1.07;67.60
25855;BME280;13680;49.936;11.344;2023-03-03T04:00:40;96927.03;;;1.08;68.11
25855;BME280;13680;49.936;11.344;2023-03-03T04:03:06;96920.25;;;1.01;67.59
25855;BME280;13680;49.936;11.344;2023-03-03T04:05:32;96916.72;;;0.95;68.41
25855;BME280;13680;49.936;11.344;2023-03-03T04:07:57;96921.19;;;0.94;68.28
25855;BME280;13680;49.936;11.344;2023-03-03T04:10:22;96915.09;;;0.94;68.58
25855;BME280;13680;49.936;11.344;2023-03-03T04:12:47;96922.13;;;1.00;68.80
25855;BME280;13680;49.936;11.344;2023-03-03T04:15:13;96917.31;;;0.97;69.30
25855;BME280;13680;49.936;11.344;2023-03-03T04:17:39;96934.31;;;1.01;69.21
25855;BME280;13680;49.936;11.344;2023-03-03T04:20:06;96923.53;;;0.67;71.33
25855;BME280;13680;49.936;11.344;2023-03-03T04:22:32;96928.69;;;0.97;71.20
25855;BME280;13680;49.936;11.344;2023-03-03T04:24:58;96931.34;;;0.97;71.49
25855;BME280;13680;49.936;11.344;2023-03-03T04:27:24;96925.56;;;1.12;71.49
25855;BME280;13680;49.936;11.344;2023-03-03T04:29:49;96928.41;;;1.11;72.68
25855;BME280;13680;49.936;11.344;2023-03-03T04:32:14;96933.94;;;1.21;72.00
25855;BME280;13680;49.936;11.344;2023-03-03T04:34:40;96935.66;;;1.16;72.69
25855;BME280;13680;49.936;11.344;2023-03-03T04:37:05;96930.72;;;1.19;72.72
25855;BME280;13680;49.936;11.344;2023-03-03T04:39:30;96932.19;;;1.27;72.93
25855;BME280;13680;49.936;11.344;2023-03-03T04:41:56;96933.91;;;1.33;72.03
25855;BME280;13680;49.936;11.344;2023-03-03T04:44:21;96928.34;;;1.35;71.19
25855;BME280;13680;49.936;11.344;2023-03-03T04:46:46;96924.44;;;1.37;71.71
25855;BME280;13680;49.936;11.344;2023-03-03T04:49:12;96929.03;;;1.42;71.71
25855;BME280;13680;49.936;11.344;2023-03-03T04:51:37;96928.78;;;1.43;71.42
25855;BME280;13680;49.936;11.344;2023-03-03T04:54:03;96926.13;;;1.43;71.36
25855;BME280;13680;49.936;11.344;2023-03-03T04:56:30;96929.91;;;1.47;70.87
25855;BME280;13680;49.936;11.344;2023-03-03T04:58:56;96928.69;;;1.38;71.72
25855;BME280;13680;49.936;11.344;2023-03-03T05:01:21;96928.47;;;1.40;71.54
25855;BME280;13680;49.936;11.344;2023-03-03T05:03:46;96933.50;;;1.41;71.46
25855;BME280;13680;49.936;11.344;2023-03-03T05:06:12;96936.78;;;1.32;71.27
25855;BME280;13680;49.936;11.344;2023-03-03T05:08:37;96931.00;;;1.35;71.52
25855;BME280;13680;49.936;11.344;2023-03-03T05:11:03;96933.69;;;1.23;71.48
25855;BME280;13680;49.936;11.344;2023-03-03T05:13:29;96943.25;;;1.24;71.39
25855;BME280;13680;49.936;11.344;2023-03-03T05:15:55;96939.94;;;1.17;71.36
25855;BME280;13680;49.936;11.344;2023-03-03T05:18:22;96939.09;;;1.16;71.81
25855;BME280;13680;49.936;11.344;2023-03-03T05:20:49;96938.00;;;1.00;73.69
25855;BME280;13680;49.936;11.344;2023-03-03T05:23:15;96935.47;;;1.05;73.07
25855;BME280;13680;49.936;11.344;2023-03-03T05:25:40;96939.25;;;1.09;72.79
25855;BME280;13680;49.936;11.344;2023-03-03T05:28:07;96932.13;;;1.10;72.50
25855;BME280;13680;49.936;11.344;2023-03-03T05:30:32;96937.41;;;1.10;72.29
25855;BME280;13680;49.936;11.344;2023-03-03T05:32:57;96943.16;;;1.07;71.94
25855;BME280;13680;49.936;11.344;2023-03-03T05:35:24;96939.00;;;1.11;72.10
25855;BME280;13680;49.936;11.344;2023-03-03T05:37:49;96949.06;;;0.97;72.01
25855;BME280;13680;49.936;11.344;2023-03-03T05:40:15;96950.22;;;1.01;71.98
25855;BME280;13680;49.936;11.344;2023-03-03T05:42:40;96949.28;;;0.95;72.53
25855;BME280;13680;49.936;11.344;2023-03-03T05:45:06;96955.28;;;0.91;73.97
25855;BME280;13680;49.936;11.344;2023-03-03T05:47:31;96954.13;;;0.98;73.40
25855;BME280;13680;49.936;11.344;2023-03-03T05:49:57;96959.06;;;0.95;73.98
25855;BME280;13680;49.936;11.344;2023-03-03T05:52:22;96964.97;;;0.97;72.85
25855;BME280;13680;49.936;11.344;2023-03-03T05:54:49;96964.72;;;0.98;74.53
25855;BME280;13680;49.936;11.344;2023-03-03T05:57:14;96959.44;;;0.98;74.37
25855;BME280;13680;49.936;11.344;2023-03-03T05:59:40;96951.81;;;1.02;76.03
25855;BME280;13680;49.936;11.344;2023-03-03T06:02:05;96965.19;;;1.07;76.16
25855;BME280;13680;49.936;11.344;2023-03-03T06:04:31;96964.47;;;1.12;75.91
25855;BME280;13680;49.936;11.344;2023-03-03T06:06:56;96973.53;;;1.16;75.75
25855;BME280;13680;49.936;11.344;2023-03-03T06:09:21;96974.59;;;1.03;75.60
25855;BME280;13680;49.936;11.344;2023-03-03T06:11:46;96970.78;;;1.23;75.71
25855;BME280;13680;49.936;11.344;2023-03-03T06:14:12;96982.53;;;1.03;76.42
25855;BME280;13680;49.936;11.344;2023-03-03T06:16:37;96979.75;;;1.22;75.33
25855;BME280;13680;49.936;11.344;2023-03-03T06:19:02;96980.91;;;1.26;74.83
25855;BME280;13680;49.936;11.344;2023-03-03T06:21:28;96989.97;;;1.30;74.41
25855;BME280;13680;49.936;11.344;2023-03-03T06:23:53;96991.94;;;1.35;74.92
25855;BME280;13680;49.936;11.344;2023-03-03T06:26:19;96999.44;;;1.26;75.76
25855;BME280;13680;49.936;11.344;2023-03-03T06:28:44;96993.56;;;1.36;75.82
25855;BME280;13680;49.936;11.344;2023-03-03T06:31:09;96995.03;;;1.43;75.38
25855;BME280;13680;49.936;11.344;2023-03-03T06:33:35;96999.81;;;1.18;76.87
25855;BME280;13680;49.936;11.344;2023-03-03T06:36:00;97009.91;;;1.44;76.04
25855;BME280;13680;49.936;11.344;2023-03-03T06:38:25;97007.69;;;1.41;75.38
25855;BME280;13680;49.936;11.344;2023-03-03T06:40:51;97014.63;;;1.42;75.85
25855;BME280;13680;49.936;11.344;2023-03-03T06:43:16;97013.31;;;1.57;75.38
25855;BME280;13680;49.936;11.344;2023-03-03T06:45:41;97026.47;;;1.52;75.79
25855;BME280;13680;49.936;11.344;2023-03-03T06:48:07;97032.31;;;1.66;75.59
25855;BME280;13680;49.936;11.344;2023-03-03T06:50:32;97024.50;;;1.59;76.21
25855;BME280;13680;49.936;11.344;2023-03-03T06:53:10;97025.59;;;1.34;77.02
25855;BME280;13680;49.936;11.344;2023-03-03T06:55:36;97041.97;;;1.19;78.76
25855;BME280;13680;49.936;11.344;2023-03-03T06:58:07;97040.69;;;0.98;78.93
25855;BME280;13680;49.936;11.344;2023-03-03T07:00:36;97031.69;;;1.35;78.64
25855;BME280;13680;49.936;11.344;2023-03-03T07:03:25;97040.88;;;1.44;77.53
25855;BME280;13680;49.936;11.344;2023-03-03T07:05:52;97046.81;;;1.63;77.23
25855;BME280;13680;49.936;11.344;2023-03-03T07:08:20;97049.94;;;1.72;77.24
25855;BME280;13680;49.936;11.344;2023-03-03T07:10:47;97056.28;;;1.59;77.20
25855;BME280;13680;49.936;11.344;2023-03-03T07:13:25;97052.81;;;1.70;77.38
25855;BME280;13680;49.936;11.344;2023-03-03T07:15:52;97067.50;;;1.90;76.47
25855;BME280;13680;49.936;11.344;2023-03-03T07:20:49;97087.28;;;1.70;76.73
25855;BME280;13680;49.936;11.344;2023-03-03T07:23:27;97088.94;;;1.12;79.32
25855;BME280;13680;49.936;11.344;2023-03-03T07:25:53;97079.47;;;1.40;79.28
25855;BME280;13680;49.936;11.344;2023-03-03T07:28:24;97085.38;;;1.18;80.44
25855;BME280;13680;49.936;11.344;2023-03-03T07:30:54;97104.34;;;1.62;79.55
25855;BME280;13680;49.936;11.344;2023-03-03T07:35:49;97095.56;;;1.62;78.98
25855;BME280;13680;49.936;11.344;2023-03-03T07:38:52;97100.91;;;2.03;77.02
25855;BME280;13680;49.936;11.344;2023-03-03T07:41:18;97107.25;;;1.61;78.78
25855;BME280;13680;49.936;11.344;2023-03-03T07:43:54;97106.72;;;1.88;78.28
25855;BME280;13680;49.936;11.344;2023-03-03T07:46:25;97113.78;;;2.40;75.85
25855;BME280;13680;49.936;11.344;2023-03-03T07:48:52;97111.47;;;2.43;75.38
25855;BME280;13680;49.936;11.344;2023-03-03T07:51:24;97107.72;;;2.56;74.86
25855;BME280;13680;49.936;11.344;2023-03-03T07:53:53;97113.19;;;2.50;75.33
25855;BME280;13680;49.936;11.344;2023-03-03T07:56:28;97106.22;;;2.32;75.34
25855;BME280;13680;49.936;11.344;2023-03-03T07:58:54;97104.00;;;2.40;75.51
25855;BME280;13680;49.936;11.344;2023-03-03T08:06:55;97110.41;;;2.90;73.62
25855;BME280;13680;49.936;11.344;2023-03-03T08:09:36;97103.91;;;3.15;72.68
25855;BME280;13680;49.936;11.344;2023-03-03T08:14:33;97121.84;;;2.74;72.56
25855;BME280;13680;49.936;11.344;2023-03-03T08:16:59;97112.91;;;2.97;72.57
25855;BME280;13680;49.936;11.344;2023-03-03T08:19:25;97115.16;;;3.22;71.78
25855;BME280;13680;49.936;11.344;2023-03-03T08:21:55;97113.00;;;2.68;73.53
25855;BME280;13680;49.936;11.344;2023-03-03T08:24:24;97120.72;;;2.87;73.51
25855;BME280;13680;49.936;11.344;2023-03-03T08:26:49;97118.13;;;2.75;73.32
25855;BME280;13680;49.936;11.344;2023-03-03T08:29:14;97112.38;;;2.95;71.90
25855;BME280;13680;49.936;11.344;2023-03-03T08:31:40;97106.63;;;3.37;71.05
25855;BME280;13680;49.936;11.344;2023-03-03T08:34:05;97100.13;;;3.89;69.73
25855;BME280;13680;49.936;11.344;2023-03-03T08:36:31;97093.31;;;3.99;69.64
25855;BME280;13680;49.936;11.344;2023-03-03T08:38:56;97107.53;;;3.65;69.42
25855;BME280;13680;49.936;11.344;2023-03-03T08:41:21;97110.97;;;4.05;68.78
25855;BME280;13680;49.936;11.344;2023-03-03T08:43:47;97103.16;;;3.98;68.82
25855;BME280;13680;49.936;11.344;2023-03-03T08:46:12;97105.47;;;3.72;68.99
25855;BME280;13680;49.936;11.344;2023-03-03T08:48:38;97101.44;;;3.87;68.82
25855;BME280;13680;49.936;11.344;2023-03-03T08:51:04;97102.03;;;3.94;68.32
25855;BME280;13680;49.936;11.344;2023-03-03T08:53:30;97083.31;;;4.33;67.41
25855;BME280;13680;49.936;11.344;2023-03-03T08:55:57;97086.06;;;4.16;66.81
25855;BME280;13680;49.936;11.344;2023-03-03T08:58:23;97097.91;;;4.03;67.27
25855;BME280;13680;49.936;11.344;2023-03-03T09:00:48;97101.84;;;4.23;67.29
25855;BME280;13680;49.936;11.344;2023-03-03T09:03:14;97095.56;;;4.34;65.88
25855;BME280;13680;49.936;11.344;2023-03-03T09:05:39;97096.38;;;4.95;64.76
25855;BME280;13680;49.936;11.344;2023-03-03T09:08:06;97088.41;;;5.32;63.25
25855;BME280;13680;49.936;11.344;2023-03-03T09:10:31;97096.13;;;4.96;63.12
25855;BME280;13680;49.936;11.344;2023-03-03T09:12:59;97090.00;;;4.96;62.80
25855;BME280;13680;49.936;11.344;2023-03-03T09:15:32;97092.19;;;5.41;62.16
25855;BME280;13680;49.936;11.344;2023-03-03T09:18:04;97098.72;;;5.66;60.42
25855;BME280;13680;49.936;11.344;2023-03-03T09:20:37;97096.03;;;5.66;61.14
25855;BME280;13680;49.936;11.344;2023-03-03T09:28:51;97102.03;;;6.63;57.72
25855;BME280;13680;49.936;11.344;2023-03-03T09:31:33;97103.63;;;6.69;57.47
25855;BME280;13680;49.936;11.344;2023-03-03T09:34:00;97108.16;;;6.58;57.45
25855;BME280;13680;49.936;11.344;2023-03-03T09:36:34;97117.47;;;6.45;58.20
25855;BME280;13680;49.936;11.344;2023-03-03T09:39:11;97112.75;;;6.94;57.02
25855;BME280;13680;49.936;11.344;2023-03-03T09:50:08;97123.69;;;7.18;55.58
25855;BME280;13680;49.936;11.344;2023-03-03T09:53:08;97128.16;;;7.79;54.68
25855;BME280;13680;49.936;11.344;2023-03-03T09:56:02;97133.41;;;8.15;53.66
25855;BME280;13680;49.936;11.344;2023-03-03T10:01:07;97137.06;;;7.44;55.36
25855;BME280;13680;49.936;11.344;2023-03-03T10:07:34;97133.88;;;7.36;54.76
25855;BME280;13680;49.936;11.344;2023-03-03T10:09:42;97142.16;;;7.56;54.41
25855;BME280;13680;49.936;11.344;2023-03-03T10:12:19;97138.69;;;7.19;54.60
25855;BME280;13680;49.936;11.344;2023-03-03T10:17:37;97133.59;;;6.76;55.08
25855;BME280;13680;49.936;11.344;2023-03-03T10:20:15;97134.84;;;7.87;53.32
25855;BME280;13680;49.936;11.344;2023-03-03T10:22:54;97143.38;;;7.99;53.10
25855;BME280;13680;49.936;11.344;2023-03-03T10:28:16;97144.16;;;8.10;53.22
25855;BME280;13680;49.936;11.344;2023-03-03T10:39:02;97149.28;;;7.96;51.35
25855;BME280;13680;49.936;11.344;2023-03-03T10:42:23;97131.22;;;8.23;51.47
25855;BME280;13680;49.936;11.344;2023-03-03T10:47:45;97128.22;;;9.54;48.12
25855;BME280;13680;49.936;11.344;2023-03-03T10:50:22;97132.72;;;8.99;49.52
25855;BME280;13680;49.936;11.344;2023-03-03T10:55:40;97130.97;;;8.29;50.32
25855;BME280;13680;49.936;11.344;2023-03-03T11:00:54;97119.59;;;9.57;48.35
25855;BME280;13680;49.936;11.344;2023-03-03T11:06:14;97114.66;;;9.93;46.02
25855;BME280;13680;49.936;11.344;2023-03-03T11:08:51;97118.22;;;9.59;45.72
25855;BME280;13680;49.936;11.344;2023-03-03T11:11:39;97114.59;;;9.74;45.75
25855;BME280;13680;49.936;11.344;2023-03-03T11:19:50;97109.81;;;9.95;45.08
25855;BME280;13680;49.936;11.344;2023-03-03T11:30:27;97100.94;;;12.45;41.32
25855;BME280;13680;49.936;11.344;2023-03-03T11:33:06;97087.09;;;12.97;40.78
25855;BME280;13680;49.936;11.344;2023-03-03T11:35:50;97076.09;;;13.39;39.42
25855;BME280;13680;49.936;11.344;2023-03-03T11:41:00;97068.44;;;13.64;38.42
25855;BME280;13680;49.936;11.344;2023-03-03T11:43:40;97067.53;;;12.91;39.85
25855;BME280;13680;49.936;11.344;2023-03-03T11:46:11;97071.56;;;12.80;40.37
25855;BME280;13680;49.936;11.344;2023-03-03T11:49:18;97067.06;;;14.33;37.27
25855;BME280;13680;49.936;11.344;2023-03-03T11:51:52;97055.28;;;14.46;37.11
25855;BME280;13680;49.936;11.344;2023-03-03T11:54:26;97049.16;;;13.97;37.05
25855;BME280;13680;49.936;11.344;2023-03-03T11:56:58;97051.28;;;14.35;37.72
25855;BME280;13680;49.936;11.344;2023-03-03T11:59:43;97045.13;;;14.52;36.58
25855;BME280;13680;49.936;11.344;2023-03-03T12:02:38;97044.03;;;14.70;35.60
25855;BME280;13680;49.936;11.344;2023-03-03T12:16:38;97043.22;;;15.52;33.26
25855;BME280;13680;49.936;11.344;2023-03-03T12:19:21;97044.22;;;15.86;33.47
25855;BME280;13680;49.936;11.344;2023-03-03T12:22:01;97040.44;;;16.60;32.32
25855;BME280;13680;49.936;11.344;2023-03-03T12:25:01;97036.75;;;16.13;33.64
25855;BME280;13680;49.936;11.344;2023-03-03T12:30:19;97039.22;;;15.02;35.08
25855;BME280;13680;49.936;11.344;2023-03-03T12:36:06;97038.56;;;15.14;34.37
25855;BME280;13680;49.936;11.344;2023-03-03T12:38:45;97041.28;;;14.53;34.50
25855;BME280;13680;49.936;11.344;2023-03-03T12:41:31;97039.19;;;15.11;34.46
25855;BME280;13680;49.936;11.344;2023-03-03T12:44:07;97031.16;;;15.41;32.72
25855;BME280;13680;49.936;11.344;2023-03-03T12:46:58;97022.44;;;16.25;31.20
25855;BME280;13680;49.936;11.344;2023-03-03T12:52:40;97021.78;;;16.49;30.60
25855;BME280;13680;49.936;11.344;2023-03-03T12:58:33;97013.84;;;16.87;30.77
25855;BME280;13680;49.936;11.344;2023-03-03T13:00:41;97015.59;;;16.70;30.46
25855;BME280;13680;49.936;11.344;2023-03-03T13:04:20;97015.75;;;16.23;30.61
25855;BME280;13680;49.936;11.344;2023-03-03T13:06:29;97009.69;;;16.26;30.78
25855;BME280;13680;49.936;11.344;2023-03-03T13:11:54;97015.78;;;16.44;30.13
25855;BME280;13680;49.936;11.344;2023-03-03T13:14:50;97006.84;;;16.98;29.53
25855;BME280;13680;49.936;11.344;2023-03-03T13:17:26;97018.00;;;15.61;31.20
25855;BME280;13680;49.936;11.344;2023-03-03T13:20:11;97001.31;;;16.73;30.35
25855;BME280;13680;49.936;11.344;2023-03-03T13:28:33;97017.16;;;15.69;31.49
25855;BME280;13680;49.936;11.344;2023-03-03T13:31:22;97019.28;;;16.44;31.44
25855;BME280;13680;49.936;11.344;2023-03-03T13:33:54;97015.16;;;15.57;32.42
25855;BME280;13680;49.936;11.344;2023-03-03T13:36:24;97000.19;;;15.90;31.85
25855;BME280;13680;49.936;11.344;2023-03-03T13:38:56;97008.44;;;15.16;32.92
25855;BME280;13680;49.936;11.344;2023-03-03T13:44:21;97010.72;;;15.91;31.92
25855;BME280;13680;49.936;11.344;2023-03-03T13:52:07;97010.34;;;15.63;31.59
25855;BME280;13680;49.936;11.344;2023-03-03T13:55:00;97002.56;;;16.42;30.30
25855;BME280;13680;49.936;11.344;2023-03-03T13:57:54;97007.34;;;15.94;31.62
25855;BME280;13680;49.936;11.344;2023-03-03T14:05:29;96979.81;;;16.47;30.84
25855;BME280;13680;49.936;11.344;2023-03-03T14:10:40;96967.19;;;17.18;29.98
25855;BME280;13680;49.936;11.344;2023-03-03T14:13:11;96973.59;;;17.01;29.65
25855;BME280;13680;49.936;11.344;2023-03-03T14:15:49;96981.56;;;16.30;30.30
25855;BME280;13680;49.936;11.344;2023-03-03T14:18:40;96967.06;;;17.14;29.45
25855;BME280;13680;49.936;11.344;2023-03-03T14:24:25;96966.31;;;18.01;27.98
25855;BME280;13680;49.936;11.344;2023-03-03T14:26:53;96973.88;;;17.58;28.92
25855;BME280;13680;49.936;11.344;2023-03-03T14:31:50;96969.56;;;18.19;27.99
25855;BME280;13680;49.936;11.344;2023-03-03T14:36:48;96969.81;;;18.01;27.70
25855;BME280;13680;49.936;11.344;2023-03-03T14:42:01;96971.06;;;18.44;28.12
25855;BME280;13680;49.936;11.344;2023-03-03T14:44:36;96969.00;;;16.80;30.56
25855;BME280;13680;49.936;11.344;2023-03-03T14:47:22;96960.97;;;17.30;29.92
25855;BME280;13680;49.936;11.344;2023-03-03T14:49:49;96960.47;;;17.03;30.13
25855;BME280;13680;49.936;11.344;2023-03-03T14:54:43;96957.19;;;16.76;30.72
25855;BME280;13680;49.936;11.344;2023-03-03T14:57:20;96966.03;;;15.20;33.78
25855;BME280;13680;49.936;11.344;2023-03-03T15:02:34;96965.72;;;15.21;33.59
25855;BME280;13680;49.936;11.344;2023-03-03T15:07:43;96969.09;;;13.29;36.45
25855;BME280;13680;49.936;11.344;2023-03-03T15:10:09;96969.84;;;11.71;40.11
25855;BME280;13680;49.936;11.344;2023-03-03T15:12:39;96969.00;;;12.12;38.95
25855;BME280;13680;49.936;11.344;2023-03-03T15:17:42;96978.13;;;11.60;39.73
25855;BME280;13680;49.936;11.344;2023-03-03T15:23:24;96974.56;;;10.76;41.91
25855;BME280;13680;49.936;11.344;2023-03-03T15:26:01;96979.78;;;10.15;43.12
25855;BME280;13680;49.936;11.344;2023-03-03T15:34:32;96973.81;;;9.80;44.06
25855;BME280;13680;49.936;11.344;2023-03-03T15:36:38;96975.34;;;9.19;45.02
25855;BME280;13680;49.936;11.344;2023-03-03T15:39:17;96981.75;;;8.64;46.05
25855;BME280;13680;49.936;11.344;2023-03-03T15:55:58;96987.31;;;7.89;48.01
25855;BME280;13680;49.936;11.344;2023-03-03T15:58:35;96992.22;;;8.21;47.91
25855;BME280;13680;49.936;11.344;2023-03-03T16:01:32;96989.41;;;7.97;47.64
25855;BME280;13680;49.936;11.344;2023-03-03T16:04:08;96984.03;;;7.97;48.05
25855;BME280;13680;49.936;11.344;2023-03-03T16:09:54;96990.25;;;7.87;47.96
25855;BME280;13680;49.936;11.344;2023-03-03T16:15:41;96999.28;;;7.36;48.79
25855;BME280;13680;49.936;11.344;2023-03-03T16:18:14;97003.28;;;7.44;49.14
25855;BME280;13680;49.936;11.344;2023-03-03T16:20:55;96996.47;;;7.77;48.17